NCAR-RAP Real-Time Weather Data

Output produced by METARs form (08 May 2021  16:31 UTC)
found at http://weather.rap.ucar.edu/surface/
 
KCLT 081552Z 26010G14KT 10SM FEW065 SCT090 SCT250 21/05 A3005 RMK AO2 SLP171 T02110050
KCLT 081452Z 27009G15KT 10SM FEW075 SCT090 21/04 A3005 RMK AO2 SLP171 T02110044 55001
KCLT 081352Z 27006KT 10SM FEW075 FEW250 19/06 A3005 RMK AO2 SLP170 T01890061
KCLT 081252Z 27005KT 10SM FEW080 FEW120 15/06 A3005 RMK AO2 SLP173 T01500056
KCLT 081152Z 27005KT 10SM FEW080 12/04 A3005 RMK AO2 SLP173 T01170044 10117 20078 51013
KCLT 081052Z 27004KT 10SM FEW080 09/03 A3004 RMK AO2 SLP170 T00940033
KCLT 080952Z 26006KT 10SM CLR 09/03 A3003 RMK AO2 SLP164 T00940033
KCLT 080852Z 23007KT 10SM CLR 08/03 A3001 RMK AO2 SLP161 T00830033 56001
KCLT 080752Z 00000KT 10SM CLR 09/04 A3001 RMK AO2 SLP160 T00890039
KCLT 080652Z 00000KT 10SM CLR 09/04 A3001 RMK AO2 SLP160 T00890039
KCLT 080552Z 00000KT 10SM CLR 09/03 A3002 RMK AO2 SLP161 T00940028 10167 20072 56001
KCLT 080452Z 00000KT 10SM CLR 09/03 A3002 RMK AO2 SLP161 T00890028 402000089
KCLT 080352Z 00000KT 10SM CLR 11/02 A3002 RMK AO2 SLP162 T01110017
KCLT 080252Z 00000KT 10SM CLR 13/01 A3002 RMK AO2 SLP162 T01280006 53018
KCLT 080152Z 29004KT 10SM CLR 13/01 A3000 RMK AO2 SLP155 T01330006
KCLT 080052Z 30005KT 10SM FEW100 15/00 A2998 RMK AO2 SLP149 T01500000
KCLT 072352Z 31006KT 10SM FEW100 17/00 A2997 RMK AO2 SLP144 T01670000 10200 20167 53007
KCLT 072252Z 33013G17KT 10SM FEW090 19/M01 A2996 RMK AO2 SLP140 T01891011
KCLT 072152Z 30008G15KT 10SM FEW085 20/01 A2994 RMK AO2 SLP136 T02000006
KCLT 072052Z 32012G20KT 10SM FEW080 19/01 A2995 RMK AO2 SLP136 T01940006 51004
KCLT 071952Z 32013G22KT 10SM FEW060 SCT080 20/02 A2995 RMK AO2 SLP136 T02000017
KCLT 071852Z 33013G22KT 10SM FEW060 SCT080 20/06 A2995 RMK AO2 PK WND 31027/1756 SLP138 T02000056
KCLT 071752Z 33013G19KT 10SM SCT060 BKN080 19/05 A2993 RMK AO2 SLP131 WSHFT 1707 FROPA T01890050 10200 20133 58001
KCLT 071727Z 36011KT 10SM FEW050 SCT090 19/07 A2994 RMK AO2 WSHFT 1707 FROPA T01940072
KCLT 071652Z 29008G18KT 10SM SCT045 BKN090 20/06 A2994 RMK AO2 SLP134 VCSH N T02000061
KCLT 071552Z 32009KT 10SM FEW045 BKN095 18/07 A2995 RMK AO2 SLP139 T01830072
KCLT 071452Z 34009G15KT 10SM FEW035 BKN095 18/07 A2994 RMK AO2 SLP132 T01780072 51012
KCLT 071352Z 33004KT 10SM FEW030 BKN100 16/08 A2993 RMK AO2 SLP129 T01610083
KCLT 071252Z 33007KT 10SM FEW025 BKN100 15/09 A2992 RMK AO2 SLP127 T01500094
KCLT 071152Z 32006KT 10SM FEW050 FEW130 13/11 A2990 RMK AO2 SLP119 60001 70010 T01330111 10150 20106 53007
KCLT 071052Z 34005KT 6SM BR FEW050 FEW150 11/10 A2988 RMK AO2 SLP113 T01110100
KCLT 070952Z 02005KT 8SM FEW050 SCT150 11/09 A2987 RMK AO2 LTG DSNT E SLP109 T01060094
KCLT 070852Z 36004KT 8SM BKN050 OVC150 12/11 A2988 RMK AO2 RAE0759 TSE24 SLP112 TS MOV NE P0000 60001 T01220111 56014
KCLT 070840Z 35005KT 9SM BKN050 OVC065 13/12 A2988 RMK AO2 RAE0759 TSE24 TS MOV NE P0000 T01330117
KCLT 070830Z 34004KT 8SM VCTS BKN050 BKN070 13/12 A2989 RMK AO2 LTG DSNT NE RAE0759 TSE24 TS MOV NE P0000 T01280117
KCLT 070752Z 34005KT 9SM -TSRA OVC050CB 13/12 A2989 RMK AO2 LTG DSNT NE RAB46 TSB52 SLP117 OCNL LTGICCC OHD TS OHD MOV NE P0001 T01330117
KCLT 070652Z 10006KT 10SM SCT060 BKN080 OVC100 14/11 A2990 RMK AO2 LTG DSNT NE RAE14 TSE08 SLP118 TS MOV NE P0000 T01390111
KCLT 070609Z 06008KT 10SM -RA BKN055 OVC080 14/11 A2991 RMK AO2 TSE08 TS MOV NE P0000 T01390106
KCLT 070552Z 08010KT 5SM -TSRA SCT055CB BKN080 15/11 A2992 RMK AO2 LTG DSNT E RAB30 TSE00B04E20E31B35 SLP126 OCNL LTGICCC E TS E MOV NE P0009 60009 T01500106 10194 20139 56010
KCLT 070535Z 12008KT 4SM +TSRA SCT055CB BKN080 16/10 A2993 RMK AO2 RAB30 TSE00B04E20E31B35 OCNL LTGICCC OHD TS OHD MOV NE P0006 T01560100
KCLT 070521Z 06007KT 10SM SCT055 BKN080 16/09 A2993 RMK AO2 TSE00B04E20 TS DSPTD T01610089
KCLT 070504Z 03006KT 10SM TS FEW060CB SCT070 SCT200 14/09 A2993 RMK AO2 TSE00B04 OCNL LTGICCC S-SW TS S-SW MOV NE T01440094
KCLT 070452Z 35005KT 10SM FEW065 SCT085 SCT200 14/10 A2993 RMK AO2 SLP130 T01440100 402220106
KCLT 070352Z 10006KT 10SM SCT070 SCT090 SCT200 17/08 A2994 RMK AO2 LTG DSNT NE SLP132 CB DSNT NE T01720083
KCLT 070252Z 17003KT 10SM SCT075 SCT110 SCT200 16/08 A2995 RMK AO2 SLP137 OCNL LTG DSNT N CB DSNT N T01560083 51003
KCLT 070152Z COR 17004KT 10SM FEW065 SCT200 18/07 A2995 RMK AO2 FRQ LTG DSNT N CB DSNT N SLP137 T01780072
KCLT 070052Z 17006KT 10SM FEW075 FEW100 SCT200 18/07 A2995 RMK AO2 SLP137 T01830072
KCLT 062352Z 20004KT 10SM FEW065 19/08 A2994 RMK AO2 SLP133 CB DSNT W T01890083 10222 20189 55003
KCLT 062252Z 26004KT 10SM FEW065 FEW250 21/07 A2993 RMK AO2 SLP130 T02110067
KCLT 062152Z 26004KT 10SM SCT065 SCT250 21/07 A2994 RMK AO2 SLP133 T02110072
KCLT 062052Z VRB04KT 10SM SCT055 SCT250 22/07 A2995 RMK AO2 SLP136 T02170067 58022
KCLT 061952Z 21006KT 10SM SCT055 BKN250 20/08 A2997 RMK AO2 SLP145 T02000078
KCLT 061852Z VRB04KT 10SM BKN055 BKN250 22/08 A2999 RMK AO2 SLP149 T02170083
KCLT 061752Z VRB04KT 10SM BKN055 BKN250 19/07 A3001 RMK AO2 SLP159 T01890067 10206 20133 58019
KCLT 061652Z VRB06KT 10SM SCT060 SCT250 20/08 A3005 RMK AO2 SLP171 T02000078 $